Main page
METAR-TAF:

METAR-TAF

Airports :

Kish International Airport

Kish, Iran

latitude: 26-31-36N, longitude: 053-58-54E, elevation: 30 m

Current weather observation

The report was made 1 hour and 6 minutes ago, at 16:00 UTC
Wind 4 kt from the West/Northwest
Temperature 28°C
Humidity 70%
Pressure 1011 hPa
Visibility: 8000 m

METAR: OIBK 181600Z 30004KT 8000 NSC 28/22 Q1011

Time: 20:36 (17:06 UTC)

Forecast

The report was made 5 hours and 36 minutes ago, at 11:30 UTC
Forecast valid from 18 at 12 UTC to 19 at 18 UTC
Wind 10 kt from the South
Visibility: 6000 m
Probability 40% :
Temporary
from 19 at 00 UTC to 19 at 04 UTC
Visibility: 5000 m
haze
Temporary
from 19 at 10 UTC to 19 at 16 UTC
Wind 16 kt from the West
Few clouds at a height of 3000 ft, Cumulonimbus.
Few clouds at a height of 3500 ft
Broken clouds at a height of 9000 ft

TAF: OIBK 181130Z 1812/1918 19005MPS 6000 NSC PROB40 TEMPO 1900/1904 5000 HZ TEMPO 1910/1916 27008MPS FEW030CB FEW035 BKN090

Weather observations and forecasts of more than 4000 airports (METAR and TAF reports).

The available stations are represented by yellow and red dots on the map.

Hover mouse over dot to see the name of the station.

Then click to see weather observations and forecasts.

To change the map : click on the green buttons with a black cross to zoom in, on the green button with a dash to zoom out, or on the green arrows for adjacent maps.


METAR-TAF: